메인 페이지
METAR-TAF:

METAR-TAF

공항 :

다마스쿠스 국제공항

다마스쿠스, 시리아

위도: 33-25N, 경도: 036-31E, 고도: 608m

현재 날씨관측

예보는 19분 전, 02:00시(UTC)에 발표되었습니다.
남서12kt
온도 20°C
습도 78%
기압 1011 hPa
시정 10km 이상
1500m 미만 상공 구름 및 적란운 없음

METAR: OSDI 210200Z 22012KT CAVOK 20/16 Q1011

시각: 05:19 (02:19 UTC)

예보

예보 대상 시간: 21일 00시부터 22일 06시까지 (UTC)
여러 방향의 바람 3kt
시정 10km 이상
1500m 미만 상공 구름 및 적란운 없음
일시적
21일 09시부터 21일 18시까지 (UTC)
남서10kt, 순간 최대 풍속 20kt
시정 10km 이상
1500m 미만 상공 구름 및 적란운 없음

TAF: OSDI 2100/2206 VRB03KT CAVOK TEMPO 2109/2118 22010G20KT CAVOK

4,000개 이상의 공항 관측 자료 및 예보 (METAR 및 TAF 보고).

지도상에서 검색 가능한 기상관측소가 노란 점과 빨간 점으로 표시되어 있습니다.

기상관측소 명을 보려면 표시 위로 마우스를 이동하세요.

날씨 관측과 예보를 보려면 클릭하세요.

지도 변경 : 확대하려면 엑스 표시가 있는 녹색 버튼, 축소하려면 빼기 표시가 있는 녹색 버튼, 다음 페이지의 지도를 보려면 녹색 화살표를 클릭하세요.


METAR-TAF: